createdAt,value
2017-01-29T00:00:00.153Z,0
2017-01-29T00:02:31.118Z,0
2017-01-29T00:03:12.639Z,0
2017-01-29T00:03:54.122Z,0
2017-01-29T00:04:35.693Z,0
2017-01-29T00:06:50.941Z,0
2017-01-29T00:07:32.606Z,0
2017-01-29T00:08:13.708Z,0
2017-01-29T00:10:33.974Z,0
2017-01-29T00:13:10.135Z,0
2017-01-29T00:13:51.736Z,0
2017-01-29T00:14:33.409Z,0
2017-01-29T00:17:03.986Z,0
2017-01-29T00:17:45.400Z,0
2017-01-29T00:18:26.933Z,0
2017-01-29T00:20:26.931Z,0
2017-01-29T00:21:08.660Z,0
2017-01-29T00:21:50.327Z,0
2017-01-29T00:22:31.796Z,0
2017-01-29T00:23:13.399Z,0
2017-01-29T00:25:49.890Z,0
2017-01-29T00:26:31.636Z,0
2017-01-29T00:29:02.852Z,0
2017-01-29T00:29:44.665Z,0
2017-01-29T00:30:26.451Z,0
2017-01-29T00:31:08.193Z,0
2017-01-29T00:31:49.909Z,0
2017-01-29T00:34:10.656Z,0
2017-01-29T00:34:52.425Z,0
2017-01-29T00:35:34.130Z,0
2017-01-29T00:38:10.365Z,0
2017-01-29T00:38:51.821Z,0
2017-01-29T00:39:33.556Z,0
2017-01-29T00:40:15.097Z,0
2017-01-29T00:40:56.872Z,0
2017-01-29T00:41:38.337Z,0
2017-01-29T00:42:20.059Z,0
2017-01-29T00:43:01.570Z,0
2017-01-29T00:43:43.269Z,0
2017-01-29T00:44:25.006Z,0
2017-01-29T00:45:06.839Z,0
2017-01-29T00:45:48.563Z,0
2017-01-29T00:46:30.121Z,0
2017-01-29T00:47:11.817Z,0
2017-01-29T00:47:53.288Z,0
2017-01-29T00:48:34.795Z,0
2017-01-29T00:49:16.370Z,0
2017-01-29T00:49:57.833Z,0
2017-01-29T00:50:39.381Z,0
2017-01-29T00:51:20.956Z,0
2017-01-29T00:52:02.568Z,0
2017-01-29T00:52:44.548Z,0
2017-01-29T00:53:26.136Z,0
2017-01-29T00:54:07.715Z,0
2017-01-29T00:54:49.368Z,0
2017-01-29T00:55:31.141Z,0
2017-01-29T00:56:12.741Z,0
2017-01-29T00:56:54.544Z,0
2017-01-29T00:57:36.371Z,0
2017-01-29T00:58:17.986Z,0
2017-01-29T00:58:59.664Z,0
2017-01-29T00:59:41.394Z,0
2017-01-29T01:00:23.027Z,0
2017-01-29T01:01:04.731Z,0
2017-01-29T01:01:46.443Z,0
2017-01-29T01:02:28.078Z,0
2017-01-29T01:03:09.698Z,0
2017-01-29T01:03:51.050Z,0
2017-01-29T01:04:32.812Z,0
2017-01-29T01:05:14.242Z,0
2017-01-29T01:05:55.818Z,0
2017-01-29T01:06:37.221Z,0
2017-01-29T01:07:18.713Z,0
2017-01-29T01:07:59.823Z,0
2017-01-29T01:08:41.378Z,0
2017-01-29T01:09:22.874Z,0
2017-01-29T01:10:04.313Z,0
2017-01-29T01:10:46.027Z,0
2017-01-29T01:11:27.794Z,0
2017-01-29T01:12:09.572Z,0
2017-01-29T01:12:51.121Z,0
2017-01-29T01:13:32.721Z,0
2017-01-29T01:14:14.380Z,0
2017-01-29T01:14:56.116Z,0
2017-01-29T01:15:37.847Z,0
2017-01-29T01:16:19.470Z,0
2017-01-29T01:17:01.327Z,0
2017-01-29T01:17:42.946Z,0
2017-01-29T01:18:24.727Z,0
2017-01-29T01:19:06.259Z,0
2017-01-29T01:19:48.128Z,0
2017-01-29T01:20:29.755Z,0
2017-01-29T01:21:11.560Z,0
2017-01-29T01:21:53.187Z,0
2017-01-29T01:22:34.923Z,0
2017-01-29T01:23:16.688Z,0
2017-01-29T01:23:58.358Z,0
2017-01-29T01:24:40.134Z,0
2017-01-29T01:25:21.963Z,0
2017-01-29T01:26:03.799Z,0
2017-01-29T01:26:45.566Z,0
2017-01-29T01:27:27.300Z,0
2017-01-29T01:28:09.082Z,0
2017-01-29T01:28:50.834Z,0
2017-01-29T01:29:32.583Z,0
2017-01-29T01:30:14.322Z,0
2017-01-29T01:30:56.087Z,0
2017-01-29T01:31:37.735Z,0
2017-01-29T01:32:19.294Z,0
2017-01-29T01:33:00.877Z,0
2017-01-29T01:33:42.420Z,0
2017-01-29T01:35:57.788Z,0
2017-01-29T01:36:39.489Z,0
2017-01-29T01:39:10.188Z,0
2017-01-29T01:41:10.137Z,0
2017-01-29T01:43:45.932Z,0
2017-01-29T01:44:27.673Z,0
2017-01-29T01:45:09.281Z,0
2017-01-29T01:45:51.025Z,0
2017-01-29T01:46:32.756Z,0
2017-01-29T01:47:14.255Z,0
2017-01-29T01:47:56.004Z,0
2017-01-29T01:48:37.752Z,0
2017-01-29T01:49:19.387Z,0
2017-01-29T01:50:00.818Z,0
2017-01-29T01:50:42.268Z,0
2017-01-29T01:51:23.930Z,0
2017-01-29T01:52:05.449Z,0
2017-01-29T01:52:47.042Z,0
2017-01-29T01:53:28.748Z,0
2017-01-29T01:54:10.011Z,0
2017-01-29T01:54:51.614Z,0
2017-01-29T01:55:32.996Z,0
2017-01-29T01:56:14.604Z,0
2017-01-29T01:58:14.814Z,0
2017-01-29T01:58:56.510Z,0
2017-01-29T01:59:38.229Z,0
2017-01-29T02:00:19.814Z,0
2017-01-29T02:01:00.958Z,0
2017-01-29T02:01:42.438Z,0
2017-01-29T02:02:23.229Z,0
2017-01-29T02:03:03.754Z,0
2017-01-29T02:03:44.290Z,0
2017-01-29T02:04:24.815Z,0
2017-01-29T02:05:05.346Z,0
2017-01-29T02:05:45.875Z,0
2017-01-29T02:06:26.403Z,0
2017-01-29T02:07:06.935Z,0
2017-01-29T02:07:47.494Z,0
2017-01-29T02:08:28.028Z,0
2017-01-29T02:09:08.552Z,0
2017-01-29T02:09:49.090Z,0
2017-01-29T02:10:29.616Z,0
2017-01-29T02:11:10.153Z,0
2017-01-29T02:11:50.687Z,0
2017-01-29T02:12:31.220Z,0
2017-01-29T02:13:11.751Z,0
2017-01-29T02:13:52.273Z,0
2017-01-29T02:14:32.807Z,0
2017-01-29T02:15:13.337Z,0
2017-01-29T02:15:53.866Z,0
2017-01-29T02:16:34.394Z,0
2017-01-29T02:17:14.913Z,0
2017-01-29T02:17:55.448Z,0
2017-01-29T02:18:35.975Z,0
2017-01-29T02:19:16.508Z,0
2017-01-29T02:19:57.042Z,0
2017-01-29T02:20:37.568Z,0
2017-01-29T02:21:18.111Z,0
2017-01-29T02:21:58.646Z,0
2017-01-29T02:22:39.178Z,0
2017-01-29T02:23:19.707Z,0
2017-01-29T02:24:00.289Z,0
2017-01-29T02:24:40.827Z,0
2017-01-29T02:25:21.359Z,0
2017-01-29T02:26:01.895Z,0
2017-01-29T02:26:42.440Z,0
2017-01-29T02:27:22.969Z,0
2017-01-29T02:28:03.502Z,0
2017-01-29T02:28:44.033Z,0
2017-01-29T02:29:24.563Z,0
2017-01-29T02:30:05.101Z,0
2017-01-29T02:30:45.630Z,0
2017-01-29T02:31:26.168Z,0
2017-01-29T02:32:06.702Z,0
2017-01-29T02:32:47.236Z,0
2017-01-29T02:33:27.769Z,0
2017-01-29T02:34:08.304Z,0
2017-01-29T02:34:48.834Z,0
2017-01-29T02:35:29.372Z,0
2017-01-29T02:36:09.905Z,0
2017-01-29T02:36:50.428Z,0
2017-01-29T02:37:30.962Z,0
2017-01-29T02:38:11.488Z,0
2017-01-29T02:38:52.026Z,0
2017-01-29T02:39:32.558Z,0
2017-01-29T02:40:13.089Z,0
2017-01-29T02:40:53.620Z,0
2017-01-29T02:41:34.152Z,0
2017-01-29T02:42:14.683Z,0
2017-01-29T02:42:55.219Z,0
2017-01-29T02:43:35.752Z,0
2017-01-29T02:44:16.293Z,0
2017-01-29T02:44:56.827Z,0
2017-01-29T02:45:37.359Z,0
2017-01-29T02:46:17.903Z,0
2017-01-29T02:46:58.434Z,0
2017-01-29T02:47:38.964Z,0
2017-01-29T02:48:19.495Z,0
2017-01-29T02:49:00.027Z,0
2017-01-29T02:49:40.566Z,0
2017-01-29T02:50:21.101Z,0
2017-01-29T02:51:01.633Z,0
2017-01-29T02:51:42.165Z,0
2017-01-29T02:52:22.700Z,0
2017-01-29T02:53:03.230Z,0
2017-01-29T02:53:43.764Z,0
2017-01-29T02:54:24.297Z,0
2017-01-29T02:55:04.837Z,0
2017-01-29T02:55:45.374Z,0
2017-01-29T02:56:25.903Z,0
2017-01-29T02:57:06.434Z,0
2017-01-29T02:57:46.972Z,0
2017-01-29T02:58:27.505Z,0
2017-01-29T02:59:08.039Z,0
2017-01-29T02:59:48.576Z,0
2017-01-29T03:00:29.116Z,0
2017-01-29T03:01:09.654Z,0
2017-01-29T03:01:50.180Z,0
2017-01-29T03:02:30.704Z,0
2017-01-29T03:03:11.241Z,0
2017-01-29T03:03:51.776Z,0
2017-01-29T03:04:32.312Z,0
2017-01-29T03:05:12.841Z,0
2017-01-29T03:05:53.375Z,0
2017-01-29T03:06:33.905Z,0
2017-01-29T03:07:14.444Z,0
2017-01-29T03:07:54.977Z,0
2017-01-29T03:08:35.515Z,0
2017-01-29T03:09:16.041Z,0
2017-01-29T03:09:56.569Z,0
2017-01-29T03:10:37.098Z,0
2017-01-29T03:11:17.629Z,0
2017-01-29T03:11:58.197Z,0
2017-01-29T03:12:38.736Z,0
2017-01-29T03:13:19.275Z,0
2017-01-29T03:13:59.819Z,0
2017-01-29T03:14:40.345Z,0
2017-01-29T03:15:20.881Z,0
2017-01-29T03:16:01.415Z,0
2017-01-29T03:16:41.950Z,0
2017-01-29T03:17:22.487Z,0
2017-01-29T03:18:03.020Z,0
2017-01-29T03:18:43.558Z,0
2017-01-29T03:19:24.092Z,0
2017-01-29T03:20:04.613Z,0
2017-01-29T03:20:45.154Z,0
2017-01-29T03:21:25.688Z,0
2017-01-29T03:22:06.222Z,0
2017-01-29T03:22:46.755Z,0
2017-01-29T03:23:27.290Z,0
2017-01-29T03:24:07.819Z,0
2017-01-29T03:24:48.358Z,0
2017-01-29T03:25:28.892Z,0
2017-01-29T03:26:09.426Z,0
2017-01-29T03:26:49.959Z,0
2017-01-29T03:27:30.492Z,0
2017-01-29T03:28:11.034Z,0
2017-01-29T03:28:51.565Z,0
2017-01-29T03:29:32.099Z,0
2017-01-29T03:30:12.638Z,0
2017-01-29T03:30:53.175Z,0
2017-01-29T03:31:33.707Z,0
2017-01-29T03:32:14.235Z,0
2017-01-29T03:32:54.776Z,0
2017-01-29T03:33:35.314Z,0
2017-01-29T03:34:15.838Z,0
2017-01-29T03:34:56.378Z,0
2017-01-29T03:35:36.911Z,0
2017-01-29T03:36:17.440Z,0
2017-01-29T03:36:57.972Z,0
2017-01-29T03:37:38.506Z,0
2017-01-29T03:38:19.043Z,0
2017-01-29T03:38:59.570Z,0
2017-01-29T03:39:40.112Z,0
2017-01-29T03:40:20.643Z,0
2017-01-29T03:41:01.175Z,0
2017-01-29T03:41:41.703Z,0
2017-01-29T03:42:22.238Z,0
2017-01-29T03:43:02.771Z,0
2017-01-29T03:43:43.292Z,0
2017-01-29T03:44:23.821Z,0
2017-01-29T03:45:04.352Z,0
2017-01-29T03:45:44.889Z,0
2017-01-29T03:46:25.418Z,0
2017-01-29T03:47:05.952Z,0
2017-01-29T03:47:46.488Z,0
2017-01-29T03:48:29.853Z,0
2017-01-29T03:49:10.390Z,0
2017-01-29T03:49:50.940Z,0
2017-01-29T03:50:31.446Z,0
2017-01-29T03:51:11.980Z,0
2017-01-29T03:51:52.515Z,0
2017-01-29T03:52:33.050Z,0
2017-01-29T03:53:13.586Z,0
2017-01-29T03:53:54.123Z,0
2017-01-29T03:54:34.657Z,0
2017-01-29T03:55:15.192Z,0
2017-01-29T03:55:55.732Z,0
2017-01-29T03:56:36.337Z,0
2017-01-29T03:57:16.846Z,0
2017-01-29T03:57:57.381Z,0
2017-01-29T03:58:37.918Z,0
2017-01-29T03:59:18.452Z,0
2017-01-29T03:59:58.991Z,0
2017-01-29T04:00:39.524Z,0
2017-01-29T04:01:20.057Z,0
2017-01-29T04:02:00.591Z,0
2017-01-29T04:02:41.131Z,0
2017-01-29T04:03:21.661Z,0
2017-01-29T04:04:02.194Z,0
2017-01-29T04:04:42.732Z,0
2017-01-29T04:05:23.254Z,0
2017-01-29T04:06:03.787Z,0
2017-01-29T04:06:44.321Z,0
2017-01-29T04:07:24.858Z,0
2017-01-29T04:08:05.388Z,0
2017-01-29T04:08:45.924Z,0
2017-01-29T04:09:26.457Z,0
2017-01-29T04:10:06.990Z,0
2017-01-29T04:10:47.510Z,0
2017-01-29T04:11:28.047Z,0
2017-01-29T04:12:08.586Z,0
2017-01-29T04:12:49.121Z,0
2017-01-29T04:13:29.657Z,0
2017-01-29T04:14:10.192Z,0
2017-01-29T04:14:50.728Z,0
2017-01-29T04:15:31.259Z,0
2017-01-29T04:16:11.795Z,0
2017-01-29T04:16:52.327Z,0
2017-01-29T04:17:32.865Z,0
2017-01-29T04:18:13.398Z,0
2017-01-29T04:18:53.939Z,0
2017-01-29T04:19:34.475Z,0
2017-01-29T04:20:15.007Z,0
2017-01-29T04:20:55.537Z,0
2017-01-29T04:21:36.073Z,0
2017-01-29T04:22:16.607Z,0
2017-01-29T04:22:57.174Z,0
2017-01-29T04:23:37.712Z,0
2017-01-29T04:24:18.244Z,0
2017-01-29T04:24:58.780Z,0
2017-01-29T04:25:39.310Z,0
2017-01-29T04:26:19.845Z,0
2017-01-29T04:27:00.377Z,0
2017-01-29T04:27:40.916Z,0
2017-01-29T04:28:21.447Z,0
2017-01-29T04:29:01.985Z,0
2017-01-29T04:29:42.517Z,0
2017-01-29T04:30:23.048Z,0
2017-01-29T04:31:03.586Z,0
2017-01-29T04:31:44.122Z,0
2017-01-29T04:32:24.656Z,0
2017-01-29T04:33:05.192Z,0
2017-01-29T04:33:45.722Z,0
2017-01-29T04:34:26.247Z,0
2017-01-29T04:35:06.783Z,0
2017-01-29T04:35:47.317Z,0
2017-01-29T04:36:27.854Z,0
2017-01-29T04:37:08.387Z,0
2017-01-29T04:37:48.924Z,0
2017-01-29T04:38:29.456Z,0
2017-01-29T04:39:09.997Z,0
2017-01-29T04:39:50.530Z,0
2017-01-29T04:40:31.064Z,0
2017-01-29T04:41:11.602Z,0
2017-01-29T04:41:52.137Z,0
2017-01-29T04:42:32.680Z,0
2017-01-29T04:43:13.204Z,0
2017-01-29T04:43:53.739Z,0
2017-01-29T04:44:34.283Z,0
2017-01-29T04:45:14.820Z,0
2017-01-29T04:45:55.351Z,0
2017-01-29T04:46:35.884Z,0
2017-01-29T04:47:16.429Z,0
2017-01-29T04:47:56.962Z,0
2017-01-29T04:48:37.500Z,0
2017-01-29T04:49:18.041Z,0
2017-01-29T04:49:58.597Z,0
2017-01-29T04:50:39.108Z,0
2017-01-29T04:51:19.644Z,0
2017-01-29T04:52:00.181Z,0
2017-01-29T04:52:40.716Z,0
2017-01-29T04:53:21.249Z,0
2017-01-29T04:54:01.793Z,0
2017-01-29T04:54:42.330Z,0
2017-01-29T04:55:22.862Z,0
2017-01-29T04:56:03.397Z,0
2017-01-29T04:56:43.937Z,0
2017-01-29T04:57:24.467Z,0
2017-01-29T04:58:05.006Z,0
2017-01-29T04:58:45.545Z,0
2017-01-29T04:59:26.085Z,0
2017-01-29T05:00:06.639Z,0
2017-01-29T05:00:47.161Z,0
2017-01-29T05:01:27.694Z,0
2017-01-29T05:02:08.225Z,0
2017-01-29T05:02:48.759Z,0
2017-01-29T05:03:29.297Z,0
2017-01-29T05:04:09.832Z,0
2017-01-29T05:04:50.370Z,0
2017-01-29T05:05:30.903Z,0
2017-01-29T05:06:11.529Z,0
2017-01-29T05:06:52.514Z,0
2017-01-29T05:07:33.093Z,0
2017-01-29T05:08:13.652Z,0
2017-01-29T05:08:54.160Z,0
2017-01-29T05:09:34.691Z,0
2017-01-29T05:10:15.229Z,0
2017-01-29T05:10:55.762Z,0
2017-01-29T05:11:36.297Z,0
2017-01-29T05:12:16.835Z,0
2017-01-29T05:12:57.366Z,0
2017-01-29T05:13:37.904Z,0
2017-01-29T05:14:18.438Z,0
2017-01-29T05:14:58.976Z,0
2017-01-29T05:15:39.506Z,0
2017-01-29T05:16:20.039Z,0
2017-01-29T05:17:00.579Z,0
2017-01-29T05:17:41.106Z,0
2017-01-29T05:18:21.647Z,0
2017-01-29T05:19:02.181Z,0
2017-01-29T05:19:42.719Z,0
2017-01-29T05:20:23.255Z,0
2017-01-29T05:21:03.788Z,0
2017-01-29T05:21:44.319Z,0
2017-01-29T05:22:24.856Z,0
2017-01-29T05:23:05.391Z,0
2017-01-29T05:23:45.936Z,0
2017-01-29T05:24:26.472Z,0
2017-01-29T05:25:07.006Z,0
2017-01-29T05:25:47.546Z,0
2017-01-29T05:26:28.082Z,0
2017-01-29T05:27:08.618Z,0
2017-01-29T05:27:49.148Z,0
2017-01-29T05:28:29.717Z,0
2017-01-29T05:29:10.250Z,0
2017-01-29T05:29:50.795Z,0
2017-01-29T05:30:31.326Z,0
2017-01-29T05:31:11.859Z,0
2017-01-29T05:31:52.402Z,0
2017-01-29T05:32:32.933Z,0
2017-01-29T05:33:13.471Z,0
2017-01-29T05:33:54.009Z,0
2017-01-29T05:34:34.544Z,0
2017-01-29T05:35:15.092Z,0
2017-01-29T05:35:55.625Z,0
2017-01-29T05:36:36.165Z,0
2017-01-29T05:37:16.704Z,0
2017-01-29T05:37:57.242Z,0
2017-01-29T05:38:37.770Z,0
2017-01-29T05:39:18.301Z,0
2017-01-29T05:39:58.843Z,0
2017-01-29T05:40:39.381Z,0
2017-01-29T05:41:19.913Z,0
2017-01-29T05:42:00.456Z,0
2017-01-29T05:42:40.991Z,0
2017-01-29T05:43:21.519Z,0
2017-01-29T05:44:02.059Z,0
2017-01-29T05:44:42.589Z,0
2017-01-29T05:45:23.123Z,0
2017-01-29T05:46:03.660Z,0
2017-01-29T05:46:44.198Z,0
2017-01-29T05:47:24.721Z,0
2017-01-29T05:48:05.258Z,0
2017-01-29T05:48:45.798Z,0
2017-01-29T05:49:26.336Z,0
2017-01-29T05:50:06.871Z,0
2017-01-29T05:50:47.414Z,0
2017-01-29T05:51:27.947Z,0
2017-01-29T05:52:08.475Z,0
2017-01-29T05:52:49.009Z,0
2017-01-29T05:53:29.552Z,0
2017-01-29T05:54:10.090Z,0
2017-01-29T05:54:50.636Z,0
2017-01-29T05:55:31.170Z,0
2017-01-29T05:56:11.704Z,0
2017-01-29T05:56:52.241Z,0
2017-01-29T05:57:32.773Z,0
2017-01-29T05:58:13.311Z,0
2017-01-29T05:58:54.043Z,0
2017-01-29T05:59:34.589Z,0
2017-01-29T06:00:15.150Z,0
2017-01-29T06:00:55.691Z,0
2017-01-29T06:01:36.230Z,0
2017-01-29T06:02:16.761Z,0
2017-01-29T06:02:57.295Z,0
2017-01-29T06:03:37.826Z,0
2017-01-29T06:04:18.366Z,0
2017-01-29T06:04:58.907Z,0
2017-01-29T06:05:39.442Z,0
2017-01-29T06:06:19.984Z,0
2017-01-29T06:07:00.512Z,0
2017-01-29T06:07:41.044Z,0
2017-01-29T06:08:21.579Z,0
2017-01-29T06:09:02.120Z,0
2017-01-29T06:09:42.654Z,0
2017-01-29T06:10:23.221Z,0
2017-01-29T06:11:03.736Z,0
2017-01-29T06:11:44.532Z,0
2017-01-29T06:12:25.113Z,0
2017-01-29T06:13:05.647Z,0
2017-01-29T06:13:46.187Z,0
2017-01-29T06:14:26.719Z,0
2017-01-29T06:15:07.247Z,0
2017-01-29T06:15:47.775Z,0
2017-01-29T06:16:28.303Z,0
2017-01-29T06:17:08.839Z,0
2017-01-29T06:17:49.370Z,0
2017-01-29T06:18:29.899Z,0
2017-01-29T06:19:10.427Z,0
2017-01-29T06:19:50.956Z,0
2017-01-29T06:20:31.492Z,0
2017-01-29T06:21:12.036Z,0
2017-01-29T06:21:52.571Z,0
2017-01-29T06:22:33.102Z,0
2017-01-29T06:23:13.641Z,0
2017-01-29T06:23:54.174Z,0
2017-01-29T06:24:34.708Z,0
2017-01-29T06:25:15.244Z,0
2017-01-29T06:25:55.781Z,0
2017-01-29T06:26:36.338Z,0
2017-01-29T06:27:16.873Z,0
2017-01-29T06:27:57.404Z,0
2017-01-29T06:28:37.937Z,0
2017-01-29T06:29:18.467Z,0
2017-01-29T06:29:58.992Z,0
2017-01-29T06:30:39.525Z,0
2017-01-29T06:31:20.057Z,0
2017-01-29T06:32:00.587Z,0
2017-01-29T06:32:41.125Z,0
2017-01-29T06:33:21.659Z,0
2017-01-29T06:34:02.408Z,0
2017-01-29T06:34:42.947Z,0
2017-01-29T06:35:23.481Z,0
2017-01-29T06:36:04.016Z,0
2017-01-29T06:36:44.542Z,0
2017-01-29T06:37:25.064Z,0
2017-01-29T06:38:05.600Z,0
2017-01-29T06:38:46.139Z,0
2017-01-29T06:39:26.672Z,0
2017-01-29T06:40:07.221Z,0
2017-01-29T06:40:47.737Z,4
2017-01-29T06:41:28.269Z,4
2017-01-29T06:42:08.801Z,0
2017-01-29T06:42:49.339Z,0
2017-01-29T06:43:29.878Z,0
2017-01-29T06:44:10.411Z,4
2017-01-29T06:44:50.951Z,4
2017-01-29T06:45:31.480Z,0
2017-01-29T06:46:12.018Z,4
2017-01-29T06:46:52.591Z,4
2017-01-29T06:47:33.121Z,4
2017-01-29T06:48:13.660Z,4
2017-01-29T06:48:54.193Z,8
2017-01-29T06:49:34.961Z,4
2017-01-29T06:50:15.497Z,8
2017-01-29T06:50:56.030Z,8
2017-01-29T06:51:36.565Z,8
2017-01-29T06:52:17.096Z,8
2017-01-29T06:52:57.627Z,12
2017-01-29T06:53:38.168Z,8
2017-01-29T06:54:18.700Z,12
2017-01-29T06:54:59.232Z,12
2017-01-29T06:55:39.764Z,16
2017-01-29T06:56:20.295Z,20
2017-01-29T06:57:00.831Z,20
2017-01-29T06:57:41.365Z,24
2017-01-29T06:58:21.902Z,20
2017-01-29T06:59:02.573Z,24
2017-01-29T06:59:43.107Z,28
2017-01-29T07:00:23.640Z,32
2017-01-29T07:01:04.185Z,32
2017-01-29T07:01:44.718Z,36
2017-01-29T07:02:25.244Z,40
2017-01-29T07:03:05.780Z,40
2017-01-29T07:03:46.314Z,48
2017-01-29T07:04:26.842Z,48
2017-01-29T07:05:07.375Z,48
2017-01-29T07:05:47.909Z,56
2017-01-29T07:06:28.437Z,56
2017-01-29T07:07:08.977Z,60
2017-01-29T07:07:49.514Z,64
2017-01-29T07:08:30.045Z,68
2017-01-29T07:09:10.578Z,72
2017-01-29T07:09:51.133Z,80
2017-01-29T07:10:31.642Z,84
2017-01-29T07:11:12.176Z,88
2017-01-29T07:11:52.716Z,92
2017-01-29T07:12:33.248Z,100
2017-01-29T07:13:13.770Z,104
2017-01-29T07:13:54.317Z,112
2017-01-29T07:14:34.830Z,116
2017-01-29T07:15:15.365Z,124
2017-01-29T07:15:55.898Z,136
2017-01-29T07:16:36.484Z,144
2017-01-29T07:17:16.951Z,152
2017-01-29T07:17:57.485Z,164
2017-01-29T07:18:38.034Z,180
2017-01-29T07:19:19.419Z,196
2017-01-29T07:19:59.951Z,208
2017-01-29T07:20:40.488Z,224
2017-01-29T07:21:21.097Z,232
2017-01-29T07:22:02.592Z,244
2017-01-29T07:22:44.367Z,256
2017-01-29T07:23:24.891Z,268
2017-01-29T07:24:05.424Z,280
2017-01-29T07:24:45.967Z,296
2017-01-29T07:25:26.509Z,308
2017-01-29T07:26:07.040Z,320
2017-01-29T07:26:47.603Z,324
2017-01-29T07:27:28.112Z,336
2017-01-29T07:28:08.647Z,344
2017-01-29T07:28:49.184Z,356
2017-01-29T07:29:29.716Z,372
2017-01-29T07:30:10.252Z,388
2017-01-29T07:30:50.827Z,400
2017-01-29T07:31:31.443Z,424
2017-01-29T07:32:11.983Z,432
2017-01-29T07:32:53.564Z,440
2017-01-29T07:33:34.699Z,452
2017-01-29T07:34:15.526Z,460
2017-01-29T07:34:56.066Z,472
2017-01-29T07:35:36.597Z,480
2017-01-29T07:36:17.142Z,492
2017-01-29T07:36:57.683Z,504
2017-01-29T07:37:38.215Z,516
2017-01-29T07:38:18.754Z,528
2017-01-29T07:38:59.281Z,532
2017-01-29T07:39:39.820Z,548
2017-01-29T07:40:20.358Z,552
2017-01-29T07:41:00.889Z,564
2017-01-29T07:41:41.413Z,576
2017-01-29T07:42:21.944Z,596
2017-01-29T07:43:02.478Z,620
2017-01-29T07:43:43.021Z,636
2017-01-29T07:44:23.559Z,652
2017-01-29T07:45:04.104Z,656
2017-01-29T07:45:44.639Z,672
2017-01-29T07:46:25.186Z,696
2017-01-29T07:47:05.947Z,732
2017-01-29T07:47:46.482Z,756
2017-01-29T07:48:27.026Z,776
2017-01-29T07:49:07.563Z,784
2017-01-29T07:49:48.085Z,792
2017-01-29T07:50:28.633Z,808
2017-01-29T07:51:09.175Z,840
2017-01-29T07:51:49.698Z,860
2017-01-29T07:52:30.219Z,872
2017-01-29T07:53:10.760Z,884
2017-01-29T07:53:51.287Z,896
2017-01-29T07:54:31.824Z,908
2017-01-29T07:55:12.353Z,932
2017-01-29T07:55:52.899Z,948
2017-01-29T07:56:33.434Z,956
2017-01-29T07:57:13.968Z,980
2017-01-29T07:57:54.479Z,1032
2017-01-29T07:58:35.035Z,1052
2017-01-29T07:59:15.578Z,1056
2017-01-29T07:59:56.111Z,1072
2017-01-29T08:00:36.642Z,1080
2017-01-29T08:01:17.177Z,1132
2017-01-29T08:01:57.705Z,1204
2017-01-29T08:02:38.234Z,1408
2017-01-29T08:03:18.763Z,1400
2017-01-29T08:03:59.308Z,1480
2017-01-29T08:04:39.826Z,1436
2017-01-29T08:05:20.372Z,1484
2017-01-29T08:06:00.902Z,1264
2017-01-29T08:06:41.439Z,1060
2017-01-29T08:07:21.980Z,1012
2017-01-29T08:08:02.512Z,904
2017-01-29T08:08:43.058Z,812
2017-01-29T08:09:23.591Z,720
2017-01-29T08:10:04.124Z,724
2017-01-29T08:10:44.656Z,796
2017-01-29T08:11:25.196Z,784
2017-01-29T08:12:05.734Z,696
2017-01-29T08:12:46.275Z,772
2017-01-29T08:13:26.813Z,816
2017-01-29T08:14:07.345Z,936
2017-01-29T08:14:47.877Z,1052
2017-01-29T08:15:28.416Z,1192
2017-01-29T08:16:09.347Z,1160
2017-01-29T08:16:49.954Z,1316
2017-01-29T08:17:30.477Z,1420
2017-01-29T08:18:11.002Z,1540
2017-01-29T08:18:51.529Z,1640
2017-01-29T08:19:32.063Z,1508
2017-01-29T08:20:12.596Z,1568
2017-01-29T08:20:53.139Z,1512
2017-01-29T08:21:33.671Z,1260
2017-01-29T08:22:14.215Z,1336
2017-01-29T08:22:54.754Z,1324
2017-01-29T08:23:35.293Z,1376
2017-01-29T08:24:15.810Z,1476
2017-01-29T08:24:56.355Z,1496
2017-01-29T08:25:36.889Z,1628
2017-01-29T08:26:17.421Z,1772
2017-01-29T08:26:57.953Z,2132
2017-01-29T08:27:38.498Z,2032
2017-01-29T08:28:19.038Z,1900
2017-01-29T08:28:59.579Z,1832
2017-01-29T08:29:40.100Z,1832
2017-01-29T08:30:20.639Z,2048
2017-01-29T08:31:01.170Z,2108
2017-01-29T08:31:41.703Z,2172
2017-01-29T08:32:22.239Z,2076
2017-01-29T08:33:02.780Z,2360
2017-01-29T08:33:43.306Z,2392
2017-01-29T08:34:23.839Z,2144
2017-01-29T08:35:04.364Z,2008
2017-01-29T08:35:44.903Z,2152
2017-01-29T08:36:25.438Z,2444
2017-01-29T08:37:05.975Z,2488
2017-01-29T08:37:46.515Z,2524
2017-01-29T08:38:27.051Z,2568
2017-01-29T08:39:07.581Z,2540
2017-01-29T08:39:48.116Z,2472
2017-01-29T08:40:28.650Z,2360
2017-01-29T08:41:09.194Z,2284
2017-01-29T08:41:49.736Z,2300
2017-01-29T08:42:30.272Z,2252
2017-01-29T08:43:10.809Z,2212
2017-01-29T08:43:51.337Z,2236
2017-01-29T08:44:31.880Z,2140
2017-01-29T08:45:12.411Z,2024
2017-01-29T08:45:52.947Z,2036
2017-01-29T08:46:33.478Z,2140
2017-01-29T08:47:14.003Z,2256
2017-01-29T08:47:54.536Z,2388
2017-01-29T08:48:35.074Z,2452
2017-01-29T08:49:18.341Z,2628
2017-01-29T08:50:00.549Z,2584
2017-01-29T08:50:41.083Z,2476
2017-01-29T08:51:22.775Z,2520
2017-01-29T08:52:05.316Z,2860
2017-01-29T08:52:48.387Z,3056
2017-01-29T08:53:31.112Z,3096
2017-01-29T08:56:17.837Z,2732
2017-01-29T08:56:58.371Z,2884
2017-01-29T08:57:38.911Z,2932
2017-01-29T08:58:19.450Z,2416
2017-01-29T08:58:59.980Z,2308
2017-01-29T08:59:40.509Z,2072
2017-01-29T09:00:21.040Z,2092
2017-01-29T09:01:01.577Z,2072
2017-01-29T09:01:42.106Z,2092
2017-01-29T09:02:22.651Z,2196
2017-01-29T09:03:03.182Z,2452
2017-01-29T09:03:43.707Z,2692
2017-01-29T09:04:24.244Z,2916
2017-01-29T09:05:04.783Z,2864
2017-01-29T09:05:45.309Z,3280
2017-01-29T09:06:25.853Z,3648
2017-01-29T09:07:06.385Z,3716
2017-01-29T09:07:46.923Z,3268
2017-01-29T09:08:27.466Z,2736
2017-01-29T09:09:08.000Z,2100
2017-01-29T09:09:48.534Z,1760
2017-01-29T09:10:29.064Z,1484
2017-01-29T09:11:09.607Z,1288
2017-01-29T09:11:50.139Z,1372
2017-01-29T09:12:30.677Z,1424
2017-01-29T09:13:11.217Z,1448
2017-01-29T09:13:51.753Z,1504
2017-01-29T09:14:32.296Z,1680
2017-01-29T09:15:12.832Z,1896
2017-01-29T09:15:53.363Z,1876
2017-01-29T09:16:33.901Z,1968
2017-01-29T09:17:14.435Z,1536
2017-01-29T09:17:54.986Z,1728
2017-01-29T09:18:35.498Z,1612
2017-01-29T09:19:16.034Z,1448
2017-01-29T09:19:56.568Z,1288
2017-01-29T09:20:37.107Z,1428
2017-01-29T09:21:17.645Z,1344
2017-01-29T09:21:58.169Z,1280
2017-01-29T09:22:38.701Z,1256
2017-01-29T09:23:19.239Z,1160
2017-01-29T09:23:59.770Z,1340
2017-01-29T09:24:40.306Z,1404
2017-01-29T09:25:20.853Z,1208
2017-01-29T09:26:01.385Z,940
2017-01-29T09:26:41.909Z,936
2017-01-29T09:27:22.442Z,1068
2017-01-29T09:28:02.973Z,1372
2017-01-29T09:28:45.446Z,1344
2017-01-29T09:29:25.982Z,1432
2017-01-29T09:30:06.514Z,1216
2017-01-29T09:30:47.045Z,1192
2017-01-29T09:31:27.581Z,1412
2017-01-29T09:32:08.118Z,1364
2017-01-29T09:32:48.651Z,1416
2017-01-29T09:33:29.183Z,1752
2017-01-29T09:34:09.717Z,1924
2017-01-29T09:34:50.251Z,1892
2017-01-29T09:35:30.777Z,1712
2017-01-29T09:36:11.305Z,1708
2017-01-29T09:36:51.852Z,1396
2017-01-29T09:37:32.375Z,1324
2017-01-29T09:38:12.921Z,1400
2017-01-29T09:38:53.446Z,1644
2017-01-29T09:39:33.978Z,1432
2017-01-29T09:40:14.526Z,1468
2017-01-29T09:40:55.062Z,1920
2017-01-29T09:41:35.596Z,2468
2017-01-29T09:42:16.131Z,2404
2017-01-29T09:42:56.663Z,2012
2017-01-29T09:43:37.200Z,1828
2017-01-29T09:44:17.731Z,2016
2017-01-29T09:44:58.278Z,2480
2017-01-29T09:45:38.797Z,3104
2017-01-29T09:46:19.340Z,4224
2017-01-29T09:46:59.871Z,4664
2017-01-29T09:47:40.417Z,6556
2017-01-29T09:48:20.952Z,6508
2017-01-29T09:49:01.485Z,5920
2017-01-29T09:49:42.027Z,4912
2017-01-29T09:50:22.563Z,3872
2017-01-29T09:51:03.095Z,3776
2017-01-29T09:51:43.633Z,3788
2017-01-29T09:52:24.175Z,3712
2017-01-29T09:53:04.705Z,3372
2017-01-29T09:53:45.239Z,3128
2017-01-29T09:54:25.780Z,3476
2017-01-29T09:55:06.350Z,4092
2017-01-29T09:55:46.891Z,6624
2017-01-29T09:56:27.431Z,6068
2017-01-29T09:57:07.972Z,4628
2017-01-29T09:57:48.503Z,6072
2017-01-29T09:58:29.041Z,6564
2017-01-29T09:59:09.573Z,5960
2017-01-29T09:59:50.098Z,5776
2017-01-29T10:00:30.623Z,7516
2017-01-29T10:01:11.168Z,5396
2017-01-29T10:01:51.698Z,3224
2017-01-29T10:02:32.222Z,2920
2017-01-29T10:03:12.761Z,2488
2017-01-29T10:03:53.297Z,2068
2017-01-29T10:04:33.835Z,2056
2017-01-29T10:05:14.380Z,2240
2017-01-29T10:05:54.906Z,1916
2017-01-29T10:06:35.445Z,1928
2017-01-29T10:07:15.986Z,1892
2017-01-29T10:07:56.524Z,1768
2017-01-29T10:08:37.051Z,1996
2017-01-29T10:09:17.584Z,2028
2017-01-29T10:09:58.111Z,2320
2017-01-29T10:10:38.652Z,2796
2017-01-29T10:11:19.186Z,3324